Bejelentkezés
MINDENAUTO.HU

MINDEN
AUTÓ

autó

Info

MINDENAUTO.HU
/20190210-Auto-Meg-iden-jonnek-az-S-rendszamok-hvg-hu

Autó: Még idén jönnek az S-rendszámok - hvg.hu

Autó: Még idén jönnek az S-rendszámok - hvg.hu Magyarországi új és használt járművek képes listája, ingyenes autó hirdetési lehetőség. Autó apróhirdetés. Járművek, autók, motorok, tehergépjárművek. Eladó Suzuki, Opel, Fiat, Mercedes, BMW, Audi, Nissan. Új és használtan importált kedvezményes áru autók. Autólízing, hitelnyújtás. Használtautó hu, minden eladó jármű hirdetések, hirdetésfeladás. Járműadatbázis, motor, haszongépjármű, busz, terepjáró és teherautó kínálat is.

Legújabb twittek

RT @yeahmahasiswa: Auto nyanyi. https://t.co/zvedi5jz6c

Auto. 2014.06,20 Seungyoon for GQ Korea https://t.co/7kSZOyFhKs

EGKR 192150Z AUTO 20004KT 9999 NCD 05/04 Q1020=

A hét autós híre az Aquaprofit támogatásával. https://t.co/CAqxbufOBZ

@istrinyafelix Auto nyanyi😂

EGKR 192050Z AUTO 21005KT 9999 NCD 06/05 Q1020=

EGKR 191950Z AUTO 22006KT 9999 NCD 06/05 Q1019=

A WEV módon már használjuk a megjelent material editort. Röviden szét lehet bontani a skint, és annak meg tudod adn… https://t.co/6DVvINndaE

Kár ezt túllihegni: mindketten hibáztak... https://t.co/zgD4ucubHw

A sós víz meghajtású autó több mint 1000 kilométert képes megtenni egyetlen teli tankkal https://t.co/vmrzWVJLnl

EGKR 191850Z AUTO 21006KT 9999 NCD 07/06 Q1019=

Összehasonlító teszt https://t.co/eeNTJa22RX

Stefan: "Ó, nekem van autóm. Csak sosem használom" Végülis vámpír vagy, minek neked autó egyáltalán?

A Riva Ferrari 32 jövőre lesz harmincéves, de a dizájnja még majd' három évtized távlatából is egészen frissnek hat. https://t.co/amgbygxyhX

Ez így kedd este nem túl biztató... https://t.co/sJ0BXwpGxf

Ha mindig is kipróbáltad volna a legófigurák életét. https://t.co/wtyQ6i34uy

Auto nyanyi https://t.co/7qKt69TluB

Autó alkatrész webáruház blog érdekesség, mely sok megbízható hivatkozást mutat meg az olvasónak. Nézze meg ajánlat… https://t.co/Sc3CVcoduL

YouTube index-kép készítése Photoshoppal kezdőknek: 1. Van a videóban bármilyen cici? AZ LEGYEN AZ INDEX-KÉP! 2. N… https://t.co/yjcxSrfkao

Az egyterű jármű nemcsak a mérete, de a variálhatósága miatt is szerencsés választás. https://t.co/hyoSR7cl6U

A szemtanúk szerint egy személygépkocsi próbálta előzni a buszt, de idő előtt áttért annak sávjába. A buszsofőr, ho… https://t.co/sOPKFOnDAc

A 15-ös és a 115-ös autóbusz terelve közlekedik, nem érinti a Lónyay utca, a Czuczor utca és a Török Pál utca megál… https://t.co/lNY2DnenGF

Összesen 99 darab ilyen jármű készül majd. https://t.co/tLDhPUqBvj

Hatalmas tömegkarambol volt néhány napja az Egyesült Államokban https://t.co/H9khq7r0ge

Az amerikai kereskedelmi minisztérium vasárnap nyújtotta be jelentését Donald Trump elnöknek arról, hogy álláspontj… https://t.co/FBQOWF28xH

@AlleeBudapest Kedves Alle! Az egyik bejaratnal van egy Kia jarmu elviheto?

@klarky75 @csucsu_official @billsuxx @Utazz @DesolateHun Logikátlannak teljesen az, lévén kb. ugyanazt kérdezik le,… https://t.co/pYKsE5Zcxj

Tűrhetetlennek nevezte a francia belügyminiszter, hogy a hétvégén Lyonban sárgamellényes tüntetők egy csoportja köv… https://t.co/xzXMEZnK1e

témát kéne választani féléves projekthez egy listából. csoporttársaim elég hétköznapi témákat néztek ki belőle (bic… https://t.co/vxXRgzQjcy

"ön lakott területen az 'A' jelű járművet vezeti. válassza ki a helyes állítást!" a, valami b, valami 2 c, kiugrom… https://t.co/UGVBRkMHhW

A jármű a tetején állt meg, az általa vontatott utánfutó leszakadt. https://t.co/VSZKaCukqk

Az 59A villamos helyett pótlóbusz közlekedik a Széll Kálmán tér M és a Márton Áron tér között egy műszaki hibás jár… https://t.co/PxuMUXo5tz

A roller hivatalosan nem jármű, a bicikliúton lassúnak számít, a gyalogosok közt meg veszélyesnek. Hova menjenek? https://t.co/y2dXoULudp

Tavaly kísérletképpen két hazai építésű kerti vasúti jármű próbázott a Park majdnem 1 km-es pályáján. Ezt a lehetős… https://t.co/yMvxTBQVqW

Az RTL Híradónak nyilatkozó autósok szerint, lassan már nincsenek menekülő útvonalak sem a fővárosban, annyira sok… https://t.co/RoYnittLu0

Két baleset is történt, nyolc jármű érintett https://t.co/okAd5dLmyf

Keresés
Autó: Még idén jönnek az S-rendszámok  hvg.hu

Nem sok van már hátra a jelenlegi rendszám struktúrából.